Flight Track Log - Related Links

Times and Time Zones

All times are in EDT time to prevent confusion due to time zone crossing. See the EJA929 flight status page for this flight to view local times or setup timezone preferences in your user account.

Time Position Orientation Groundspeed Altitude Reporting Facility
EDT Latitude Longitude Course Direction KTS MPH feet Rate Location/Type
Wed 08:51:00 PM 42.1256 -95.7046 92° East  Level Estimated
Wed 08:52:00 PM 42.0972 -95.5361 103° East  Level Estimated
Wed 08:53:00 PM 42.0686 -95.3678 103° East  Level Estimated
Wed 08:54:00 PM 42.0397 -95.1997 103° East  Level Estimated
Wed 08:55:00 PM 42.0106 -95.0317 103° East  Level Estimated
Wed 08:56:00 PM 41.9812 -94.8638 103° East  Level Estimated
Wed 08:57:00 PM 41.9516 -94.6962 103° East  Level Estimated
Wed 08:58:00 PM 41.9217 -94.5286 103° East  Level Estimated
Wed 08:59:00 PM 41.8916 -94.3613 104° East  Level Estimated
Wed 09:00:00 PM 41.8613 -94.1940 104° East  Level Estimated
Wed 09:01:00 PM 41.8307 -94.0270 104° East  Level Estimated
Wed 09:02:00 PM 41.7998 -93.8601 104° East  Level Estimated
Wed 09:03:00 PM 41.7687 -93.6934 104° East  Level Estimated
Wed 09:04:00 PM 41.7374 -93.5268 104° East  Level Estimated
Wed 09:05:00 PM 41.7059 -93.3604 104° East  Level Estimated
Wed 09:06:00 PM 41.6741 -93.1942 104° East  Level Estimated
Wed 09:07:00 PM 41.6420 -93.0281 104° East  Level Estimated
Wed 09:08:00 PM 41.6098 -92.8622 105° East  Level Estimated
Wed 09:09:00 PM 41.5773 -92.6964 105° East  Level Estimated
Wed 09:10:00 PM 41.5445 -92.5308 105° East  Level Estimated
Wed 09:11:00 PM 41.5115 -92.3654 105° East  Level Estimated
Wed 09:12:00 PM 41.4783 -92.2002 105° East  Level Estimated
Wed 09:13:00 PM 41.4448 -92.0351 105° East  Level Estimated
Wed 09:14:00 PM 41.4111 -91.8702 105° East  Level Estimated
Wed 09:15:00 PM 41.3772 -91.7055 105° East  Level Estimated
Wed 09:16:00 PM 41.3430 -91.5409 105° East  Level Estimated
Wed 09:17:00 PM 41.3086 -91.3765 106° East  Level Estimated
Wed 09:18:00 PM 41.2740 -91.2123 106° East  Level Estimated
Wed 09:19:00 PM 41.2391 -91.0483 106° East  Level Estimated
Wed 09:20:00 PM 41.2040 -90.8845 106° East  Level Estimated
Wed 09:21:00 PM 41.1687 -90.7208 106° East  Level Estimated
Wed 09:22:00 PM 41.1331 -90.5573 106° East  Level Estimated
Wed 09:23:00 PM 41.0974 -90.3939 106° East  Level Estimated
Wed 09:24:00 PM 41.0613 -90.2308 106° East  Level Estimated
Wed 09:25:00 PM 41.0251 -90.0678 106° East  Level Estimated
Wed 09:26:00 PM 40.9886 -89.9050 106° East  Level Estimated
Wed 09:27:00 PM 40.9519 -89.7424 107° East  Level Estimated
Wed 09:28:00 PM 40.9150 -89.5800 107° East  Level Estimated
Wed 09:29:00 PM 40.8778 -89.4177 107° East  Level Estimated
Wed 09:30:00 PM 40.8404 -89.2557 107° East  Level Estimated
Wed 09:31:00 PM 40.8028 -89.0938 107° East  Level Estimated
Wed 09:32:00 PM 40.7666 -88.9391 107° East  Level Estimated
Wed 09:33:00 PM 40.7301 -88.7846 107° East  Level Estimated
Wed 09:34:00 PM 40.6935 -88.6302 107° East  Level Estimated
Wed 09:35:00 PM 40.6567 -88.4760 107° East  Level Estimated
Wed 09:36:00 PM 40.6197 -88.3220 108° East  Level Estimated
Wed 09:37:00 PM 40.5825 -88.1682 108° East  Level Estimated
Wed 09:38:00 PM 40.5450 -88.0145 108° East  Level Estimated
Wed 09:39:00 PM 40.5074 -87.8610 108° East  Level Estimated
Wed 09:40:00 PM 40.4695 -87.7076 108° East  Level Estimated
Wed 09:41:00 PM 40.4315 -87.5545 108° East  Level Estimated
Wed 09:42:00 PM 40.3932 -87.4015 108° East  Level Estimated
Wed 09:43:00 PM 40.3548 -87.2487 108° East  Level Estimated
Wed 09:44:00 PM 40.3161 -87.0960 108° East  Level Estimated
Wed 09:45:00 PM 40.2773 -86.9436 108° East  Level Estimated
Wed 09:46:00 PM 40.2382 -86.7913 109° East  Level Estimated
Wed 09:47:00 PM 40.1990 -86.6392 109° East  Level Estimated
Wed 09:48:00 PM 40.1595 -86.4873 109° East  Level Estimated
Wed 09:49:00 PM 40.1199 -86.3355 109° East  Level Estimated
Wed 09:50:00 PM 40.0801 -86.1839 109° East  Level Estimated
Wed 09:51:00 PM 40.0400 -86.0325 109° East  Level Estimated
Wed 09:52:00 PM 39.9998 -85.8813 109° East  Level Estimated
Wed 09:53:00 PM 39.9594 -85.7303 109° East  Level Estimated
Wed 09:54:00 PM 39.9187 -85.5794 109° East  Level Estimated
Wed 09:55:00 PM 39.8779 -85.4287 109° East  Level Estimated
Wed 09:56:00 PM 39.8369 -85.2782 109° East  Level Estimated
Wed 09:57:00 PM 39.7957 -85.1279 110° East  Level Estimated
Wed 09:58:00 PM 39.7543 -84.9777 110° East  Level Estimated
Wed 09:59:00 PM 39.7127 -84.8278 110° East  Level Estimated
Wed 10:00:00 PM 39.6709 -84.6780 110° East  Level Estimated
Wed 10:01:00 PM 39.6289 -84.5284 110° East  Level Estimated
Wed 10:02:00 PM 39.5867 -84.3790 110° East  Level Estimated
Wed 10:03:00 PM 39.5443 -84.2297 110° East  Level Estimated
Wed 10:04:00 PM 39.5018 -84.0807 110° East  Level Estimated
Wed 10:05:00 PM 39.4590 -83.9318 110° East  Level Estimated
Wed 10:06:00 PM 39.4172 -83.7869 110° East  Level Estimated
Wed 10:06:14 PM 39.5972 -83.7831 111° Southeast 511 588 45,000  Level Indianapolis Center
Wed 10:07:00 PM 39.3752 -83.6422 111° Southeast  Level Estimated
Wed 10:07:15 PM 39.5417 -83.6169 113° Southeast 511 588 45,000  Level Indianapolis Center
Wed 10:08:00 PM 39.3330 -83.4977 111° Southeast  Level Estimated
Wed 10:08:16 PM 39.4867 -83.4508 113° Southeast 510 587 45,000  Level Indianapolis Center
Wed 10:09:00 PM 39.2906 -83.3533 111° Southeast  Level Estimated
Wed 10:09:17 PM 39.4294 -83.2853 114° Southeast 509 586 45,000  Level Indianapolis Center
Wed 10:10:00 PM 39.2481 -83.2092 111° Southeast  Level Estimated
Wed 10:10:18 PM 39.3622 -83.0833 113° Southeast 513 590 45,000  Level Indianapolis Center
Wed 10:11:00 PM 39.2053 -83.0652 111° Southeast  Level Estimated
Wed 10:12:00 PM 39.2848 -82.8407 112° Southeast  Level Estimated
Wed 10:19:00 PM 38.9605 -81.8472 113° Southeast  Level Estimated
Wed 10:20:00 PM 38.9135 -81.7060 113° Southeast  Level Estimated
Wed 10:21:00 PM 38.8663 -81.5650 113° Southeast  Level Estimated
Wed 10:22:00 PM 38.8189 -81.4242 113° Southeast  Level Estimated
Wed 10:23:00 PM 38.7714 -81.2836 113° Southeast  Level Estimated
Wed 10:24:00 PM 38.7237 -81.1432 113° Southeast  Level Estimated
Wed 10:25:00 PM 38.6759 -81.0029 114° Southeast  Level Estimated
Wed 10:26:00 PM 38.6279 -80.8629 114° Southeast  Level Estimated
Wed 10:27:00 PM 38.5797 -80.7230 114° Southeast  Level Estimated
Wed 10:28:00 PM 38.5313 -80.5833 114° Southeast  Level Estimated
Wed 10:29:00 PM 38.4828 -80.4438 114° Southeast  Level Estimated
Wed 10:30:00 PM 38.4341 -80.3045 114° Southeast  Level Estimated
Wed 10:31:00 PM 38.3853 -80.1654 114° Southeast  Level Estimated
Wed 10:32:00 PM 38.3363 -80.0265 114° Southeast  Level Estimated
Wed 10:33:00 PM 38.2871 -79.8878 114° Southeast  Level Estimated
Wed 10:34:00 PM 38.2377 -79.7492 114° Southeast  Level Estimated
Wed 10:35:00 PM 38.1882 -79.6108 114° Southeast  Level Estimated
Wed 10:36:00 PM 38.1386 -79.4727 115° Southeast  Level Estimated
Wed 10:37:00 PM 38.0887 -79.3347 115° Southeast  Level Estimated
Wed 10:38:00 PM 38.0388 -79.1969 115° Southeast  Level Estimated
Wed 10:39:00 PM 37.9886 -79.0593 115° Southeast  Level Estimated
Wed 10:40:00 PM 37.9383 -78.9219 115° Southeast  Level Estimated
Wed 10:41:00 PM 37.8878 -78.7846 115° Southeast  Level Estimated
Wed 10:42:00 PM 37.8372 -78.6476 115° Southeast  Level Estimated
Wed 10:43:00 PM 37.7864 -78.5107 115° Southeast  Level Estimated
Wed 10:44:00 PM 37.7355 -78.3741 115° Southeast  Level Estimated
Wed 10:45:00 PM 37.6844 -78.2376 115° Southeast  Level Estimated
Wed 10:46:00 PM 37.6331 -78.1013 115° Southeast  Level Estimated
Wed 10:47:00 PM 37.5817 -77.9652 115° Southeast  Level Estimated
Wed 10:48:00 PM 37.5301 -77.8293 116° Southeast  Level Estimated
Wed 10:49:00 PM 37.4784 -77.6935 116° Southeast  Level Estimated
Wed 10:50:00 PM 37.4265 -77.5580 116° Southeast  Level Estimated
Wed 10:51:00 PM 37.3745 -77.4227 116° Southeast  Level Estimated
Wed 10:52:00 PM 37.3223 -77.2875 116° Southeast  Level Estimated
Wed 10:53:00 PM 37.2700 -77.1525 116° Southeast  Level Estimated
Wed 10:54:00 PM 37.2175 -77.0177 116° Southeast  Level Estimated
Wed 10:55:00 PM 37.1648 -76.8831 116° Southeast  Level Estimated
Wed 10:56:00 PM 37.1120 -76.7487 116° Southeast  Level Estimated
Wed 10:57:00 PM 37.0591 -76.6145 116° Southeast  Level Estimated
Wed 10:58:00 PM 37.0060 -76.4805 116° Southeast  Level Estimated
Wed 10:59:00 PM 36.9527 -76.3466 116° Southeast  Level Estimated
Wed 11:00:00 PM 36.8993 -76.2129 117° Southeast  Level Estimated
Wed 11:01:00 PM 36.8946 -76.2012 117° Southeast  Level Estimated
Wed 11:02:00 PM 36.8946 -76.2012 302° West  Level Estimated
Wed 11:03:00 PM 36.8946 -76.2012 302° West  Level Estimated
Wed 11:04:00 PM 36.8946 -76.2012 302° West  Level Estimated
Wed 11:05:00 PM 36.8946 -76.2012 302° West  Level Estimated
Wed 11:06:00 PM 36.8946 -76.2012 302° West  Level Estimated
Wed 11:07:00 PM 36.8946 -76.2012 302° West  Level Estimated
Wed 11:08:00 PM 36.8946 -76.2012 302° West  Level Estimated
Wed 11:09:00 PM 36.8946 -76.2012 302° West  Level Estimated
Wed 11:10:00 PM 36.8946 -76.2012 302° West  Level Estimated
Wed 11:11:00 PM 36.8946 -76.2012 302° West  Level Estimated

Login

Don't have an account? Register now (free) for customized features, flight alerts, and more!